EXS46LC EGSS-LGZA
Flight info
| Callsign | EXS46LC |
|---|---|
| Flight time | N/A |
| Altitude | 35000 |
| Route | CLN M84 KONAN UL607 KOK DCT REMBA M624 RITAX DCT SUTAL DCT GTQ DCT BEGAR DCT ELMUR DCT RESIA DCT BORMI DCT LATAN UM872 ASTUS |
| Aircraft | A321/M-SDE3FGHIRWY/LB1 |
Departure
| Time | N/A |
|---|---|
| Airport | London Stansted Airport (EGSS) |
Arrival
| Time | 2026-04-22 18:27 |
|---|---|
| Airport | Zakynthos International Airport Dionysios Solomos (LGZA) |
| Time | Latitude | Longitude | Altitude | Speed | Heading |
|---|---|---|---|---|---|
| 2026-04-22 18:13 | 38.15883 | 20.26882 | 17719 ft | 405 kts | 150° |
| 2026-04-22 18:13 | 38.13560 | 20.28884 | 17228 ft | 402 kts | 150° |
| 2026-04-22 18:14 | 38.11251 | 20.30871 | 16763 ft | 399 kts | 150° |
| 2026-04-22 18:14 | 38.08960 | 20.32841 | 16267 ft | 396 kts | 150° |
| 2026-04-22 18:14 | 38.06684 | 20.34793 | 15783 ft | 393 kts | 150° |
| 2026-04-22 18:14 | 38.04427 | 20.36731 | 15280 ft | 390 kts | 150° |
| 2026-04-22 18:15 | 38.02942 | 20.38007 | 14952 ft | 388 kts | 150° |
| 2026-04-22 18:15 | 37.99992 | 20.40542 | 14282 ft | 385 kts | 150° |
| 2026-04-22 18:15 | 37.97774 | 20.42441 | 13763 ft | 383 kts | 150° |
| 2026-04-22 18:15 | 37.95571 | 20.44327 | 13210 ft | 381 kts | 150° |
| 2026-04-22 18:16 | 37.93383 | 20.46201 | 12698 ft | 378 kts | 149° |
| 2026-04-22 18:16 | 37.91211 | 20.48057 | 12171 ft | 375 kts | 149° |
| 2026-04-22 18:16 | 37.89056 | 20.49895 | 11646 ft | 372 kts | 149° |
| 2026-04-22 18:16 | 37.86916 | 20.51719 | 11122 ft | 370 kts | 149° |
| 2026-04-22 18:17 | 37.84794 | 20.53531 | 10704 ft | 364 kts | 149° |
| 2026-04-22 18:17 | 37.82743 | 20.55286 | 10566 ft | 349 kts | 149° |
| 2026-04-22 18:17 | 37.80774 | 20.56967 | 10446 ft | 334 kts | 150° |
| 2026-04-22 18:17 | 37.78881 | 20.58579 | 10274 ft | 323 kts | 150° |
| 2026-04-22 18:18 | 37.77029 | 20.60148 | 9980 ft | 318 kts | 150° |
| 2026-04-22 18:18 | 37.75204 | 20.61693 | 9819 ft | 315 kts | 150° |
| 2026-04-22 18:18 | 37.73385 | 20.63234 | 9688 ft | 315 kts | 150° |
| 2026-04-22 18:18 | 37.71568 | 20.64775 | 9426 ft | 314 kts | 150° |
| 2026-04-22 18:19 | 37.69769 | 20.66304 | 9051 ft | 311 kts | 149° |
| 2026-04-22 18:19 | 37.67981 | 20.67823 | 8655 ft | 308 kts | 149° |
| 2026-04-22 18:19 | 37.66213 | 20.69324 | 8347 ft | 306 kts | 149° |
| 2026-04-22 18:19 | 37.64455 | 20.70815 | 7976 ft | 303 kts | 149° |
| 2026-04-22 18:20 | 37.62711 | 20.72286 | 7608 ft | 301 kts | 149° |
| 2026-04-22 18:20 | 37.60980 | 20.73745 | 7239 ft | 298 kts | 149° |
| 2026-04-22 18:20 | 37.59268 | 20.75189 | 6878 ft | 294 kts | 148° |
| 2026-04-22 18:20 | 37.57585 | 20.76643 | 6517 ft | 291 kts | 142° |
| 2026-04-22 18:21 | 37.56246 | 20.78534 | 6143 ft | 289 kts | 121° |
| 2026-04-22 18:21 | 37.55472 | 20.80846 | 5767 ft | 285 kts | 106° |
| 2026-04-22 18:21 | 37.54975 | 20.83251 | 5400 ft | 282 kts | 101° |
| 2026-04-22 18:21 | 37.54665 | 20.85653 | 5043 ft | 273 kts | 95° |
| 2026-04-22 18:22 | 37.54538 | 20.87969 | 4710 ft | 264 kts | 89° |
| 2026-04-22 18:22 | 37.54585 | 20.90258 | 4470 ft | 249 kts | 84° |
| 2026-04-22 18:22 | 37.54770 | 20.92352 | 4268 ft | 232 kts | 78° |
| 2026-04-22 18:22 | 37.55415 | 20.94092 | 3984 ft | 213 kts | 40° |
| 2026-04-22 18:23 | 37.56683 | 20.94795 | 3693 ft | 195 kts | 1° |
| 2026-04-22 18:23 | 37.57963 | 20.94502 | 3372 ft | 182 kts | 342° |
| 2026-04-22 18:23 | 37.59162 | 20.94052 | 3105 ft | 178 kts | 342° |
| 2026-04-22 18:24 | 37.61500 | 20.93188 | 2578 ft | 174 kts | 342° |
| 2026-04-22 18:24 | 37.62648 | 20.92765 | 2343 ft | 170 kts | 342° |
| 2026-04-22 18:24 | 37.64894 | 20.91961 | 1897 ft | 166 kts | 343° |
| 2026-04-22 18:25 | 37.66001 | 20.91581 | 1681 ft | 164 kts | 343° |
| 2026-04-22 18:25 | 37.67095 | 20.91204 | 1455 ft | 162 kts | 343° |
| 2026-04-22 18:25 | 37.67828 | 20.90950 | 1326 ft | 161 kts | 343° |
| 2026-04-22 18:26 | 37.69849 | 20.90256 | 931 ft | 145 kts | 343° |
| 2026-04-22 18:26 | 37.70819 | 20.89959 | 729 ft | 143 kts | 348° |
| 2026-04-22 18:26 | 37.71787 | 20.89692 | 511 ft | 142 kts | 343° |
| 2026-04-22 18:26 | 37.72732 | 20.89318 | 318 ft | 143 kts | 342° |
| 2026-04-22 18:27 | 37.73685 | 20.88956 | 153 ft | 143 kts | 343° |
| 2026-04-22 18:27 | 37.74635 | 20.88601 | 26 ft | 139 kts | 343° |
| 2026-04-22 18:27 | 37.75394 | 20.88316 | 21 ft | 74 kts | 343° |
| 2026-04-22 18:27 | 37.75614 | 20.88233 | 22 ft | 11 kts | 349° |
| 2026-04-22 18:28 | 37.75656 | 20.88235 | 23 ft | 2 kts | 313° |
| 2026-04-22 18:28 | 37.75625 | 20.88227 | 22 ft | 10 kts | 169° |
| 2026-04-22 18:28 | 37.75530 | 20.88262 | 21 ft | 15 kts | 163° |
| 2026-04-22 18:28 | 37.75478 | 20.88349 | 21 ft | 12 kts | 108° |
| 2026-04-22 18:29 | 37.75427 | 20.88423 | 20 ft | 9 kts | 151° |
| 2026-04-22 18:29 | 37.75415 | 20.88474 | 20 ft | 6 kts | 74° |
| 2026-04-22 18:29 | 37.75426 | 20.88517 | 20 ft | 5 kts | 72° |
| 2026-04-22 18:29 | 37.75430 | 20.88532 | 23 ft | 0 kts | 72° |